Time;durP1;ratioP1;P1;durP2;ratioP2;P2;SDS_P1;SDS_P2;PMS_P1;PMS_P2;Temp;Humidity;BMP_temperature;BMP_pressure;BME280_temperature;BME280_humidity;BME280_pressure;Samples;Min_cycle;Max_cycle;Signal;HPM_P1;HPM_P2
2020/12/07 00:01:25;;;;;;;19.80;14.67;;;9.40;99.90;;;;;;5073657;28;20457;-51
2020/12/07 00:03:52;;;;;;;19.33;14.33;;;9.50;99.90;;;;;;5073010;28;20517;-51
2020/12/07 00:06:20;;;;;;;21.13;15.27;;;9.30;99.90;;;;;;5073435;28;20477;-49
2020/12/07 00:08:47;;;;;;;19.10;16.00;;;9.40;99.90;;;;;;5073314;28;20429;-49
2020/12/07 00:11:14;;;;;;;22.70;14.93;;;9.40;99.90;;;;;;5073571;28;20490;-50
2020/12/07 00:13:40;;;;;;;19.50;14.90;;;9.50;99.90;;;;;;5073133;28;20519;-50
2020/12/07 00:16:07;;;;;;;18.80;14.57;;;9.40;99.90;;;;;;5073427;28;20407;-50
2020/12/07 00:18:34;;;;;;;18.60;14.23;;;9.40;99.90;;;;;;5073001;28;20430;-50
2020/12/07 00:21:00;;;;;;;17.87;14.50;;;9.50;99.90;;;;;;5072930;28;20485;-51
2020/12/07 00:23:28;;;;;;;25.73;15.10;;;9.50;99.90;;;;;;5073082;28;20469;-51
2020/12/07 00:25:54;;;;;;;21.80;15.53;;;9.40;99.90;;;;;;5054844;28;20955;-51
2020/12/07 00:28:21;;;;;;;23.27;15.73;;;9.60;99.90;;;;;;5072879;28;20408;-50
2020/12/07 00:30:47;;;;;;;23.20;15.80;;;9.50;99.90;;;;;;5072717;28;20433;-50
2020/12/07 00:33:14;;;;;;;18.43;14.60;;;9.40;99.90;;;;;;5072374;28;20864;-51
2020/12/07 00:35:40;;;;;;;23.43;15.30;;;9.50;99.90;;;;;;5072638;28;20847;-51
2020/12/07 00:38:07;;;;;;;20.07;15.60;;;9.70;99.90;;;;;;5072673;28;20428;-51
2020/12/07 00:40:34;;;;;;;22.97;15.60;;;9.30;99.90;;;;;;5072696;28;20411;-51
2020/12/07 00:43:01;;;;;;;25.50;16.23;;;9.40;99.90;;;;;;5072149;28;20463;-51
2020/12/07 00:45:27;;;;;;;22.07;15.93;;;9.30;99.90;;;;;;5072385;28;20473;-50
2020/12/07 00:47:54;;;;;;;19.30;14.27;;;9.50;99.90;;;;;;5072561;28;20823;-51
2020/12/07 00:50:20;;;;;;;18.80;14.63;;;9.40;99.90;;;;;;5072497;28;20926;-51
2020/12/07 00:52:47;;;;;;;20.27;14.50;;;9.40;99.90;;;;;;5053972;28;20443;-51
2020/12/07 00:55:13;;;;;;;23.80;15.50;;;9.30;99.90;;;;;;5054400;28;20415;-51
2020/12/07 00:57:41;;;;;;;22.57;14.27;;;9.50;99.90;;;;;;5054403;28;20420;-50
2020/12/07 01:00:08;;;;;;;18.40;14.50;;;9.40;99.90;;;;;;5054360;28;20448;-50
2020/12/07 01:02:38;;;;;;;18.03;13.97;;;9.40;99.90;;;;;;5054038;28;21016;-50
2020/12/07 01:05:06;;;;;;;19.03;14.37;;;9.30;99.90;;;;;;5054041;28;20481;-50
2020/12/07 01:07:35;;;;;;;19.70;13.83;;;9.30;99.90;;;;;;5054052;28;20408;-50
2020/12/07 01:10:03;;;;;;;18.83;14.27;;;9.20;99.90;;;;;;5054239;28;20431;-50
2020/12/07 01:12:31;;;;;;;19.60;14.00;;;9.50;99.90;;;;;;5053831;28;20456;-49
2020/12/07 01:14:58;;;;;;;21.43;14.17;;;9.40;99.90;;;;;;5072210;28;20734;-49
2020/12/07 01:17:25;;;;;;;19.63;14.17;;;9.40;99.90;;;;;;5071922;28;20980;-49
2020/12/07 01:20:00;;;;;;;17.83;13.80;;;9.40;99.90;;;;;;5071890;28;20430;-50
2020/12/07 01:22:30;;;;;;;19.40;13.63;;;9.30;99.90;;;;;;5053522;28;20416;-50
2020/12/07 01:24:58;;;;;;;17.23;14.03;;;9.50;99.90;;;;;;5071681;28;20874;-50
2020/12/07 01:27:26;;;;;;;17.10;13.03;;;9.50;99.90;;;;;;5071860;28;20422;-48
2020/12/07 01:29:54;;;;;;;16.77;13.53;;;9.40;99.90;;;;;;5071654;28;20464;-49
2020/12/07 01:32:21;;;;;;;20.80;14.83;;;9.30;99.90;;;;;;5053358;28;20785;-50
2020/12/07 01:34:50;;;;;;;17.67;13.67;;;9.40;99.90;;;;;;5053659;28;20529;-49
2020/12/07 01:37:17;;;;;;;24.37;15.70;;;9.20;99.90;;;;;;5071797;28;20457;-49
2020/12/07 01:39:44;;;;;;;21.97;14.73;;;9.50;99.90;;;;;;5053642;28;20514;-49
2020/12/07 01:42:12;;;;;;;17.67;14.30;;;9.50;99.90;;;;;;5053650;28;20428;-49
2020/12/07 01:44:39;;;;;;;18.77;13.83;;;9.30;99.90;;;;;;5071267;28;20504;-48
2020/12/07 01:47:21;;;;;;;21.47;15.43;;;9.30;99.90;;;;;;5071364;28;20444;-49
2020/12/07 01:49:51;;;;;;;17.77;13.93;;;9.30;99.90;;;;;;5053548;28;20419;-49
2020/12/07 01:52:21;;;;;;;19.33;14.30;;;9.50;99.90;;;;;;5053402;28;20443;-50
2020/12/07 01:54:49;;;;;;;17.67;14.07;;;9.60;99.90;;;;;;5071464;28;20460;-49
2020/12/07 01:57:15;;;;;;;21.40;14.00;;;9.20;99.90;;;;;;5053295;28;20445;-49
2020/12/07 01:59:43;;;;;;;19.53;14.33;;;9.40;99.90;;;;;;5053394;28;20866;-49
2020/12/07 02:02:10;;;;;;;22.73;14.63;;;9.30;99.90;;;;;;5053451;28;20422;-49
2020/12/07 02:04:37;;;;;;;21.43;14.93;;;9.10;99.90;;;;;;5052705;28;20861;-49
2020/12/07 02:07:06;;;;;;;21.00;15.20;;;9.00;99.90;;;;;;5053427;28;21089;-49
2020/12/07 02:09:33;;;;;;;19.63;14.30;;;9.00;99.90;;;;;;5053419;28;20456;-49
2020/12/07 02:12:00;;;;;;;22.80;17.20;;;9.20;99.90;;;;;;5053425;28;20457;-49
2020/12/07 02:14:29;;;;;;;22.30;16.90;;;9.30;99.90;;;;;;5052997;28;20970;-49
2020/12/07 02:16:55;;;;;;;20.13;16.03;;;9.20;99.90;;;;;;5053323;28;20455;-50
2020/12/07 02:19:22;;;;;;;21.40;16.07;;;9.30;99.90;;;;;;5053305;28;20846;-50
2020/12/07 02:21:52;;;;;;;20.17;16.50;;;9.20;99.90;;;;;;5053601;28;20467;-50
2020/12/07 02:24:48;;;;;;;19.30;16.20;;;9.30;99.90;;;;;;5053356;28;20472;-49
2020/12/07 02:27:21;;;;;;;21.20;15.37;;;9.40;99.90;;;;;;5053233;28;20446;-49
2020/12/07 02:29:48;;;;;;;19.10;15.00;;;9.30;99.90;;;;;;5053223;28;20452;-48
2020/12/07 02:32:16;;;;;;;24.17;15.83;;;9.40;99.90;;;;;;5053010;28;20528;-49
2020/12/07 02:35:16;;;;;;;21.83;15.30;;;9.20;99.90;;;;;;5058617;28;20455;-48
2020/12/07 02:37:49;;;;;;;20.20;15.27;;;9.20;99.90;;;;;;5053077;28;20481;-48
2020/12/07 02:40:19;;;;;;;25.10;15.73;;;9.10;99.90;;;;;;5053196;28;20468;-48
2020/12/07 02:42:46;;;;;;;20.93;15.87;;;9.10;99.90;;;;;;5052681;28;20440;-49
2020/12/07 02:45:18;;;;;;;21.37;14.87;;;9.10;99.90;;;;;;5052993;28;20479;-48
2020/12/07 02:47:53;;;;;;;19.80;14.27;;;9.40;99.90;;;;;;5052966;28;20452;-49
2020/12/07 02:50:20;;;;;;;21.00;15.80;;;9.10;99.90;;;;;;5052953;28;20450;-49
2020/12/07 02:52:47;;;;;;;22.70;16.00;;;9.10;99.90;;;;;;5052461;28;20449;-49
2020/12/07 02:55:14;;;;;;;22.00;15.63;;;9.30;99.90;;;;;;5070829;28;20412;-49
2020/12/07 02:57:44;;;;;;;25.67;14.70;;;9.10;99.90;;;;;;5052819;28;20956;-49
2020/12/07 03:00:14;;;;;;;20.50;14.80;;;9.00;99.90;;;;;;5054975;28;20440;-49
2020/12/07 03:02:42;;;;;;;18.97;14.97;;;9.10;99.90;;;;;;5095087;22;20448;-48
2020/12/07 03:05:14;;;;;;;24.03;14.90;;;9.30;99.90;;;;;;5036478;28;20485;-46
2020/12/07 03:07:41;;;;;;;22.30;15.60;;;9.20;99.90;;;;;;5053897;28;20833;-47
2020/12/07 03:10:08;;;;;;;22.13;16.07;;;9.20;99.90;;;;;;5036327;28;20543;-47
2020/12/07 03:12:38;;;;;;;20.60;16.27;;;9.40;99.90;;;;;;5035979;28;20525;-47
2020/12/07 03:15:07;;;;;;;20.03;14.67;;;9.30;99.90;;;;;;5036219;28;20866;-47
2020/12/07 03:17:37;;;;;;;19.23;14.87;;;9.20;99.90;;;;;;5036543;28;20421;-48
2020/12/07 03:20:04;;;;;;;21.60;15.73;;;9.20;99.90;;;;;;5053982;28;20434;-47
2020/12/07 03:22:31;;;;;;;21.10;14.53;;;9.20;99.90;;;;;;5035621;28;20454;-48
2020/12/07 03:25:00;;;;;;;21.50;15.57;;;9.30;99.90;;;;;;5035911;28;20475;-47
2020/12/07 03:27:26;;;;;;;23.53;14.80;;;9.40;99.90;;;;;;5035700;28;21007;-47
2020/12/07 03:29:54;;;;;;;22.90;15.63;;;9.30;99.90;;;;;;5035900;28;20952;-48
2020/12/07 03:32:23;;;;;;;20.43;15.30;;;9.30;99.90;;;;;;5035486;28;20455;-47
2020/12/07 03:34:50;;;;;;;21.73;15.03;;;9.30;99.90;;;;;;5053539;28;20441;-48
2020/12/07 03:37:17;;;;;;;19.80;14.90;;;9.30;99.90;;;;;;5036157;28;20548;-48
2020/12/07 03:39:51;;;;;;;22.27;14.83;;;9.30;99.90;;;;;;5035604;28;20947;-46
2020/12/07 03:42:17;;;;;;;23.50;16.90;;;9.30;99.90;;;;;;5035391;28;20460;-47
2020/12/07 03:44:45;;;;;;;20.90;15.20;;;9.50;99.90;;;;;;5035438;28;20855;-47
2020/12/07 03:47:14;;;;;;;22.83;15.20;;;9.40;99.90;;;;;;5053618;28;20449;-47
2020/12/07 03:49:41;;;;;;;20.80;14.00;;;9.50;99.90;;;;;;5053181;28;20409;-47
2020/12/07 03:52:09;;;;;;;25.70;15.67;;;9.40;99.90;;;;;;5034480;28;20450;-47
2020/12/07 03:54:35;;;;;;;20.87;14.03;;;9.40;99.90;;;;;;5034936;28;20797;-46
2020/12/07 03:57:03;;;;;;;19.93;14.33;;;9.30;99.90;;;;;;5035355;28;21004;-46
2020/12/07 03:59:30;;;;;;;20.03;15.57;;;9.30;99.90;;;;;;5035366;28;20451;-46
2020/12/07 04:01:57;;;;;;;22.60;15.70;;;9.40;99.90;;;;;;5035156;28;20449;-47
2020/12/07 04:04:33;;;;;;;23.70;14.50;;;9.30;99.90;;;;;;5034928;28;20516;-47
2020/12/07 04:07:00;;;;;;;20.00;15.27;;;9.30;99.90;;;;;;5036962;28;20434;-46
2020/12/07 04:09:26;;;;;;;18.80;14.07;;;9.30;99.90;;;;;;5035901;28;20445;-47
2020/12/07 04:11:53;;;;;;;25.13;15.80;;;9.30;99.90;;;;;;5052415;28;20436;-47
2020/12/07 04:14:19;;;;;;;21.83;14.80;;;9.30;99.90;;;;;;5052086;28;20919;-46
2020/12/07 04:16:46;;;;;;;20.70;15.10;;;9.30;99.90;;;;;;5052797;28;20451;-47
2020/12/07 04:19:12;;;;;;;19.60;14.43;;;9.50;99.90;;;;;;5053115;28;20904;-47
2020/12/07 04:21:40;;;;;;;20.20;14.33;;;9.20;99.90;;;;;;5052831;28;20581;-47
2020/12/07 04:24:06;;;;;;;21.70;16.13;;;9.30;99.90;;;;;;5052363;28;20802;-46
2020/12/07 04:26:33;;;;;;;22.30;15.47;;;9.20;99.90;;;;;;5052232;28;20516;-46
2020/12/07 04:29:00;;;;;;;18.70;14.90;;;9.20;99.90;;;;;;5034639;28;20863;-47
2020/12/07 04:31:27;;;;;;;19.73;14.80;;;9.60;99.90;;;;;;5053432;28;20444;-47
2020/12/07 04:33:54;;;;;;;17.30;14.20;;;9.30;99.90;;;;;;5037050;28;20500;-47
2020/12/07 04:36:20;;;;;;;19.40;15.20;;;9.40;99.90;;;;;;5053775;28;20427;-46
2020/12/07 04:38:48;;;;;;;20.37;15.17;;;9.30;99.90;;;;;;5052775;28;20917;-47
2020/12/07 04:41:15;;;;;;;19.03;14.10;;;9.30;99.90;;;;;;5035629;28;20503;-47
2020/12/07 04:43:42;;;;;;;19.23;14.63;;;9.30;99.90;;;;;;5053170;28;20524;-47
2020/12/07 04:46:08;;;;;;;20.37;14.97;;;9.30;99.90;;;;;;5053369;28;20477;-49
2020/12/07 04:48:36;;;;;;;23.17;15.70;;;9.30;99.90;;;;;;5052859;28;20423;-47
2020/12/07 04:51:03;;;;;;;20.07;15.50;;;9.30;99.90;;;;;;5051878;28;20536;-47
2020/12/07 04:53:32;;;;;;;20.80;15.00;;;8.70;99.90;;;;;;5051882;28;20456;-47
2020/12/07 04:56:01;;;;;;;20.43;16.03;;;9.10;99.90;;;;;;5052087;28;20940;-46
2020/12/07 04:58:28;;;;;;;20.37;15.90;;;9.20;99.90;;;;;;5051835;28;20913;-46
2020/12/07 05:00:54;;;;;;;25.27;16.20;;;9.20;99.90;;;;;;5051913;28;20439;-47
2020/12/07 05:03:21;;;;;;;22.07;16.10;;;9.30;99.90;;;;;;5051949;28;20524;-47
2020/12/07 05:05:51;;;;;;;22.33;16.03;;;9.20;99.90;;;;;;5052034;28;20545;-46
2020/12/07 05:08:17;;;;;;;20.67;16.50;;;9.50;99.90;;;;;;5053059;28;20425;-46
2020/12/07 05:10:45;;;;;;;17.33;14.63;;;9.00;99.90;;;;;;5053919;28;20437;-46
2020/12/07 05:13:20;;;;;;;21.07;14.97;;;9.30;99.90;;;;;;5053425;28;20421;-48
2020/12/07 05:15:47;;;;;;;18.00;14.40;;;9.20;99.90;;;;;;5052479;28;20428;-47
2020/12/07 05:18:13;;;;;;;19.90;14.67;;;9.20;99.90;;;;;;5051694;28;20465;-46
2020/12/07 05:20:40;;;;;;;19.00;14.80;;;9.00;99.90;;;;;;5051414;28;20459;-46
2020/12/07 05:23:06;;;;;;;22.17;16.67;;;8.90;99.90;;;;;;5051002;28;20856;-47
2020/12/07 05:25:34;;;;;;;19.80;17.13;;;8.90;99.90;;;;;;5052013;28;20483;-47
2020/12/07 05:28:03;;;;;;;23.40;16.50;;;9.10;99.90;;;;;;5052613;28;20411;-46
2020/12/07 05:30:33;;;;;;;21.23;16.93;;;9.10;99.90;;;;;;5052209;28;20527;-47
2020/12/07 05:33:00;;;;;;;20.97;15.20;;;9.20;99.90;;;;;;5051654;28;20466;-47
2020/12/07 05:35:27;;;;;;;21.33;15.90;;;9.40;99.90;;;;;;5052155;28;20890;-47
2020/12/07 05:37:53;;;;;;;20.30;16.00;;;8.90;99.90;;;;;;5052084;28;20433;-46
2020/12/07 05:40:20;;;;;;;23.83;15.80;;;9.00;99.90;;;;;;5052161;28;20902;-46
2020/12/07 05:42:46;;;;;;;22.20;15.57;;;9.00;99.90;;;;;;5052121;28;20499;-45
2020/12/07 05:45:13;;;;;;;21.00;15.97;;;9.00;99.90;;;;;;5052199;28;20476;-46
2020/12/07 05:47:40;;;;;;;26.23;15.30;;;9.00;99.90;;;;;;5052272;28;20430;-46
2020/12/07 05:50:09;;;;;;;24.77;16.50;;;9.00;99.90;;;;;;5053904;28;20465;-46
2020/12/07 05:52:46;;;;;;;20.37;15.80;;;9.00;99.90;;;;;;5053646;28;20429;-46
2020/12/07 05:55:14;;;;;;;19.97;15.43;;;9.00;99.90;;;;;;5054163;28;20429;-47
2020/12/07 05:57:47;;;;;;;21.47;16.40;;;9.30;99.90;;;;;;5053370;28;20912;-46
2020/12/07 06:00:20;;;;;;;20.87;17.37;;;9.20;99.90;;;;;;5036023;28;20964;-46
2020/12/07 06:02:51;;;;;;;17.10;14.43;;;9.00;99.90;;;;;;5035895;28;20488;-46
2020/12/07 06:05:19;;;;;;;22.23;15.57;;;9.20;99.90;;;;;;5053962;28;20473;-46
2020/12/07 06:07:50;;;;;;;20.63;15.63;;;9.00;99.90;;;;;;5054506;28;20431;-45
2020/12/07 06:10:17;;;;;;;21.13;17.00;;;9.10;99.90;;;;;;5053658;28;20411;-47
2020/12/07 06:12:49;;;;;;;20.77;15.50;;;8.90;99.90;;;;;;5035725;28;20434;-46
2020/12/07 06:15:19;;;;;;;21.17;15.80;;;9.00;99.90;;;;;;5052020;28;20544;-46
2020/12/07 06:17:49;;;;;;;26.07;18.17;;;8.80;99.90;;;;;;5051766;28;20489;-46
2020/12/07 06:20:33;;;;;;;23.10;16.73;;;9.10;99.90;;;;;;5052924;28;20468;-46
2020/12/07 06:23:01;;;;;;;22.53;16.77;;;8.90;99.90;;;;;;5053543;28;20449;-46
2020/12/07 06:25:30;;;;;;;19.57;15.30;;;8.90;99.90;;;;;;5054645;28;20480;-45
2020/12/07 06:28:01;;;;;;;21.77;16.23;;;8.90;99.90;;;;;;5037490;28;20562;-47
2020/12/07 06:30:32;;;;;;;21.90;15.60;;;8.90;99.90;;;;;;5052851;28;20483;-47
2020/12/07 06:33:05;;;;;;;18.10;14.47;;;8.90;99.90;;;;;;5051492;28;20933;-47
2020/12/07 06:35:32;;;;;;;23.00;15.47;;;9.00;99.90;;;;;;5054927;28;20438;-47
2020/12/07 06:38:02;;;;;;;20.10;15.60;;;9.00;99.90;;;;;;5055425;28;20523;-46
2020/12/07 06:40:30;;;;;;;22.17;15.70;;;9.00;99.90;;;;;;5054830;28;21016;-46
2020/12/07 06:42:57;;;;;;;23.00;17.20;;;8.90;99.90;;;;;;5054347;28;20560;-45
2020/12/07 06:45:30;;;;;;;22.47;16.07;;;8.90;99.90;;;;;;5054731;28;20494;-46
2020/12/07 06:48:08;;;;;;;19.47;15.00;;;9.00;99.90;;;;;;5055054;28;20433;-49
2020/12/07 06:50:37;;;;;;;24.17;17.10;;;8.80;99.90;;;;;;5056050;28;20964;-47
2020/12/07 06:53:19;;;;;;;21.33;15.97;;;9.00;99.90;;;;;;5037345;28;20462;-47
2020/12/07 06:55:46;;;;;;;26.63;16.23;;;8.90;99.90;;;;;;5055780;28;20429;-46
2020/12/07 06:58:29;;;;;;;22.63;17.13;;;8.90;99.90;;;;;;5055354;28;20777;-47
2020/12/07 07:00:56;;;;;;;21.83;16.40;;;8.70;99.90;;;;;;5055839;28;20469;-46
2020/12/07 07:03:23;;;;;;;25.23;19.40;;;8.90;99.90;;;;;;5055845;28;20503;-47
2020/12/07 07:05:50;;;;;;;21.70;15.30;;;8.80;99.90;;;;;;5054580;28;20981;-46
2020/12/07 07:08:16;;;;;;;22.13;16.17;;;9.30;99.90;;;;;;5054866;28;20429;-49
2020/12/07 07:10:43;;;;;;;19.33;15.37;;;8.80;99.90;;;;;;5054749;28;20437;-48
2020/12/07 07:13:12;;;;;;;22.57;15.10;;;9.00;99.90;;;;;;5053899;28;20518;-46
2020/12/07 07:15:41;;;;;;;19.80;15.77;;;8.70;99.90;;;;;;5054795;28;20501;-45
2020/12/07 07:18:08;;;;;;;25.90;16.50;;;9.00;99.90;;;;;;5054585;28;20440;-46
2020/12/07 07:20:36;;;;;;;20.87;16.43;;;8.70;99.90;;;;;;5054255;28;20438;-47
2020/12/07 07:23:03;;;;;;;19.90;14.70;;;9.10;99.90;;;;;;5054279;28;20460;-46
2020/12/07 07:25:49;;;;;;;18.60;16.00;;;8.40;99.90;;;;;;5054546;28;21063;-47
2020/12/07 07:28:15;;;;;;;19.43;15.77;;;9.30;99.90;;;;;;5054522;28;20408;-46
2020/12/07 07:30:42;;;;;;;19.83;15.03;;;8.80;99.90;;;;;;5054464;28;20443;-46
2020/12/07 07:33:08;;;;;;;24.30;16.70;;;9.00;99.90;;;;;;5054303;28;20457;-49
2020/12/07 07:35:37;;;;;;;23.50;16.70;;;8.90;99.90;;;;;;5053563;28;20464;-47
2020/12/07 07:38:03;;;;;;;24.10;15.90;;;8.90;99.90;;;;;;5035596;28;20431;-46
2020/12/07 07:40:31;;;;;;;19.53;14.60;;;8.90;99.90;;;;;;5053477;28;20823;-47
2020/12/07 07:43:00;;;;;;;20.10;15.60;;;8.90;99.90;;;;;;5035159;28;20519;-45
2020/12/07 07:45:31;;;;;;;21.60;15.80;;;8.90;99.90;;;;;;5053261;28;20542;-47
2020/12/07 07:48:04;;;;;;;25.17;15.77;;;8.40;99.90;;;;;;5035896;28;20460;-47
2020/12/07 07:53:57;;;;;;;21.03;16.63;;;8.90;99.90;;;;;;5053285;28;21044;-46
2020/12/07 08:15:52;;;;;;;23.83;16.73;;;8.90;99.90;;;;;;5019944;28;20441;-47
2020/12/07 08:18:30;;;;;;;21.70;14.83;;;8.80;99.90;;;;;;5053401;28;20962;-46
2020/12/07 08:20:58;;;;;;;19.87;16.00;;;9.00;99.90;;;;;;5053761;28;20455;-46
2020/12/07 08:23:29;;;;;;;19.30;15.20;;;8.80;99.90;;;;;;5052892;28;20463;-47
2020/12/07 08:25:57;;;;;;;22.40;15.57;;;9.00;99.90;;;;;;5053088;28;20452;-47
2020/12/07 08:28:27;;;;;;;18.97;15.27;;;9.00;99.90;;;;;;5053336;28;20408;-46
2020/12/07 08:31:04;;;;;;;19.23;15.13;;;8.90;99.90;;;;;;5052674;28;20441;-47
2020/12/07 08:33:32;;;;;;;23.47;15.93;;;9.00;99.90;;;;;;5052734;28;20423;-47
2020/12/07 08:36:01;;;;;;;21.10;14.27;;;8.90;99.90;;;;;;5053085;28;20459;-47
2020/12/07 08:38:29;;;;;;;22.80;15.57;;;8.90;99.90;;;;;;5053111;28;20783;-46
2020/12/07 08:41:04;;;;;;;23.63;15.67;;;9.10;99.90;;;;;;5053099;28;20491;-47
2020/12/07 08:43:31;;;;;;;20.13;15.73;;;9.00;99.90;;;;;;5052691;28;20423;-47
2020/12/07 08:45:58;;;;;;;23.37;16.20;;;8.80;99.90;;;;;;5050952;28;20473;-46
2020/12/07 08:48:25;;;;;;;17.87;15.20;;;9.00;99.90;;;;;;5050256;28;20806;-46
2020/12/07 08:50:54;;;;;;;23.57;15.73;;;9.10;99.90;;;;;;5052845;28;20419;-47
2020/12/07 08:53:21;;;;;;;26.90;16.90;;;9.00;99.90;;;;;;5051952;28;20450;-47
2020/12/07 08:55:49;;;;;;;19.07;14.43;;;9.30;99.90;;;;;;5034755;28;20431;-47
2020/12/07 08:58:17;;;;;;;22.40;15.90;;;9.00;99.90;;;;;;5053036;28;20551;-46
2020/12/07 09:00:43;;;;;;;19.50;14.53;;;9.30;99.90;;;;;;5055375;28;20433;-47
2020/12/07 09:03:10;;;;;;;19.80;16.23;;;9.30;99.90;;;;;;5055381;28;20586;-46
2020/12/07 09:05:38;;;;;;;24.33;15.73;;;9.10;99.90;;;;;;5054504;28;20477;-45
2020/12/07 09:08:06;;;;;;;19.23;14.80;;;9.40;99.90;;;;;;5052277;28;20412;-48
2020/12/07 09:10:33;;;;;;;21.80;17.00;;;9.40;99.90;;;;;;5053447;28;20529;-46
2020/12/07 09:13:00;;;;;;;18.50;15.63;;;9.00;99.90;;;;;;5052339;28;20875;-46
2020/12/07 09:15:28;;;;;;;22.40;15.97;;;9.20;99.90;;;;;;5052195;28;20492;-47
2020/12/07 09:17:55;;;;;;;22.33;15.50;;;9.30;99.90;;;;;;5052060;28;20438;-47
2020/12/07 09:20:22;;;;;;;18.57;15.00;;;8.60;99.90;;;;;;5051445;28;20456;-46
2020/12/07 09:22:48;;;;;;;21.27;15.63;;;9.30;99.90;;;;;;5051515;28;20451;-45
2020/12/07 09:25:15;;;;;;;20.27;16.00;;;9.40;99.90;;;;;;5052013;28;20438;-45
2020/12/07 09:27:41;;;;;;;23.77;16.57;;;9.40;99.90;;;;;;5052234;28;20433;-45
2020/12/07 09:30:08;;;;;;;20.73;16.27;;;9.40;99.90;;;;;;5034123;28;20738;-47
2020/12/07 09:32:36;;;;;;;20.60;15.50;;;9.40;99.90;;;;;;5051367;28;21066;-47
2020/12/07 09:35:03;;;;;;;18.93;15.57;;;8.70;99.90;;;;;;5034195;28;20444;-47
2020/12/07 09:37:29;;;;;;;19.03;15.47;;;9.30;99.90;;;;;;5052587;28;20528;-48
2020/12/07 09:39:56;;;;;;;21.00;15.07;;;9.30;99.90;;;;;;5052079;28;20544;-46
2020/12/07 09:42:23;;;;;;;25.97;15.80;;;9.30;99.90;;;;;;5051488;28;20426;-46
2020/12/07 09:44:49;;;;;;;24.23;15.30;;;9.60;99.90;;;;;;5051809;28;20452;-46
2020/12/07 09:47:16;;;;;;;23.67;15.40;;;9.10;99.90;;;;;;5051409;28;21083;-47
2020/12/07 09:49:43;;;;;;;21.30;17.17;;;9.20;99.90;;;;;;5051822;28;20438;-46
2020/12/07 09:52:10;;;;;;;21.97;15.07;;;9.40;99.90;;;;;;5052152;28;20446;-45
2020/12/07 09:54:39;;;;;;;19.60;14.50;;;9.30;99.90;;;;;;5051055;28;20855;-45
2020/12/07 09:57:06;;;;;;;28.63;16.50;;;9.30;99.90;;;;;;5052187;28;20438;-45
2020/12/07 09:59:35;;;;;;;19.33;14.73;;;9.30;99.90;;;;;;5051751;28;20460;-45
2020/12/07 10:02:02;;;;;;;21.77;15.13;;;9.10;99.90;;;;;;5051918;28;20500;-46
2020/12/07 10:04:29;;;;;;;20.50;14.93;;;9.20;99.90;;;;;;5051301;28;20444;-46
2020/12/07 10:06:56;;;;;;;20.20;15.70;;;9.30;99.90;;;;;;5052247;28;20455;-46
2020/12/07 10:09:23;;;;;;;20.73;15.50;;;8.70;99.90;;;;;;5054642;28;20407;-46
2020/12/07 10:11:49;;;;;;;23.70;17.40;;;9.30;99.90;;;;;;5039207;28;20454;-45
2020/12/07 10:14:16;;;;;;;18.53;14.80;;;9.40;99.90;;;;;;5055501;28;20478;-47
2020/12/07 10:16:44;;;;;;;23.10;16.73;;;9.40;99.90;;;;;;5055868;28;20506;-45
2020/12/07 10:19:11;;;;;;;18.20;15.00;;;9.40;99.90;;;;;;5055267;28;20511;-47
2020/12/07 10:21:38;;;;;;;20.87;15.53;;;9.30;99.90;;;;;;5042720;28;20545;-46
2020/12/07 10:24:06;;;;;;;20.53;15.80;;;10.00;99.90;;;;;;5074772;28;20483;-46
2020/12/07 10:26:32;;;;;;;19.87;15.37;;;9.30;99.90;;;;;;5076147;28;20923;-46
2020/12/07 10:28:59;;;;;;;22.60;15.87;;;9.40;99.90;;;;;;5075667;28;20426;-47
2020/12/07 10:31:26;;;;;;;23.03;15.97;;;9.40;99.90;;;;;;5075811;28;20483;-47
2020/12/07 10:33:54;;;;;;;23.67;15.83;;;9.40;99.90;;;;;;5068093;28;20537;-46
2020/12/07 10:36:21;;;;;;;22.93;16.50;;;9.50;99.90;;;;;;5057675;28;20473;-47
2020/12/07 10:38:48;;;;;;;22.13;16.53;;;9.30;99.90;;;;;;5063752;28;20933;-45
2020/12/07 10:41:16;;;;;;;24.23;16.10;;;9.40;99.90;;;;;;5062108;28;20469;-47
2020/12/07 10:43:43;;;;;;;21.63;15.90;;;9.40;99.90;;;;;;5076414;28;20650;-46
2020/12/07 10:46:12;;;;;;;19.47;14.10;;;9.40;99.90;;;;;;5075794;28;20505;-46
2020/12/07 10:48:39;;;;;;;19.80;16.13;;;9.40;99.90;;;;;;5075853;28;20413;-47
2020/12/07 10:51:11;;;;;;;18.87;14.73;;;9.30;99.90;;;;;;5060797;28;20487;-47
2020/12/07 10:53:38;;;;;;;20.53;15.30;;;9.50;99.90;;;;;;5054747;28;20772;-47
2020/12/07 10:56:07;;;;;;;20.70;16.17;;;9.40;99.90;;;;;;5055496;28;20445;-47
2020/12/07 10:58:34;;;;;;;23.10;17.33;;;9.50;99.90;;;;;;5055765;28;20430;-46
2020/12/07 11:01:01;;;;;;;21.50;16.40;;;9.50;99.90;;;;;;5055559;28;20521;-47
2020/12/07 11:03:28;;;;;;;24.20;16.50;;;9.00;99.90;;;;;;5054555;28;20437;-47
2020/12/07 11:05:55;;;;;;;19.00;14.17;;;9.50;99.90;;;;;;5055282;28;20481;-46
2020/12/07 11:08:28;;;;;;;21.87;15.90;;;9.60;99.90;;;;;;5071045;28;20445;-47
2020/12/07 11:10:55;;;;;;;18.17;15.00;;;9.50;99.90;;;;;;5074501;28;20924;-47
2020/12/07 11:13:27;;;;;;;22.80;17.27;;;9.70;99.90;;;;;;5074888;28;20910;-47
2020/12/07 11:15:55;;;;;;;24.83;16.97;;;9.50;99.90;;;;;;5075667;28;20440;-47
2020/12/07 11:18:22;;;;;;;19.67;15.53;;;9.60;99.90;;;;;;5074436;28;20916;-47
2020/12/07 11:20:48;;;;;;;20.97;16.40;;;9.60;99.90;;;;;;5072718;28;20411;-47
2020/12/07 11:23:15;;;;;;;17.80;14.87;;;9.40;99.90;;;;;;5054684;28;20463;-49
2020/12/07 11:25:42;;;;;;;21.57;15.27;;;9.70;99.90;;;;;;5054110;28;20450;-48
2020/12/07 11:28:08;;;;;;;22.97;16.90;;;9.60;99.90;;;;;;5054516;28;20401;-46
2020/12/07 11:30:35;;;;;;;21.73;15.10;;;9.70;99.90;;;;;;5054344;28;20442;-46
2020/12/07 11:33:03;;;;;;;20.20;15.87;;;9.70;99.90;;;;;;5052837;28;20451;-47
2020/12/07 11:35:30;;;;;;;25.33;16.33;;;9.70;99.90;;;;;;5054093;28;20416;-48
2020/12/07 11:38:01;;;;;;;22.90;16.27;;;9.60;99.90;;;;;;5053985;28;20427;-47
2020/12/07 11:40:40;;;;;;;23.37;16.10;;;9.60;99.90;;;;;;5054315;28;20422;-46
2020/12/07 11:43:15;;;;;;;22.90;17.27;;;10.00;99.90;;;;;;5035978;28;20456;-46
2020/12/07 11:45:42;;;;;;;22.87;16.87;;;9.70;99.90;;;;;;5037464;28;20430;-47
2020/12/07 11:48:10;;;;;;;20.77;17.00;;;9.50;99.90;;;;;;5036624;28;20412;-46
2020/12/07 11:50:37;;;;;;;22.87;15.60;;;9.60;99.90;;;;;;5035281;28;20774;-46
2020/12/07 11:53:04;;;;;;;28.97;18.07;;;9.70;99.90;;;;;;5035744;28;20488;-47
2020/12/07 11:55:30;;;;;;;23.27;18.20;;;9.60;99.90;;;;;;5049056;28;20471;-46
2020/12/07 11:57:57;;;;;;;22.63;17.00;;;9.40;99.90;;;;;;5056792;28;20397;-46
2020/12/07 12:00:24;;;;;;;20.83;15.83;;;9.60;99.90;;;;;;5055554;28;20500;-47
2020/12/07 12:02:51;;;;;;;23.83;17.27;;;9.60;99.90;;;;;;5054687;28;20437;-45
2020/12/07 12:05:19;;;;;;;25.83;17.23;;;9.60;99.90;;;;;;5054921;28;20517;-45
2020/12/07 12:07:46;;;;;;;21.10;16.90;;;9.60;99.90;;;;;;5054150;28;20481;-46
2020/12/07 12:10:13;;;;;;;26.33;17.20;;;9.60;99.90;;;;;;5056603;28;20510;-46
2020/12/07 12:12:39;;;;;;;22.90;16.60;;;9.70;99.90;;;;;;5056715;28;20458;-47
2020/12/07 12:15:06;;;;;;;24.60;15.60;;;9.60;99.90;;;;;;5056255;28;20430;-47
2020/12/07 12:17:32;;;;;;;23.80;16.57;;;9.70;99.90;;;;;;5056055;28;20526;-47
2020/12/07 12:19:59;;;;;;;20.37;16.23;;;9.60;99.90;;;;;;5038879;28;20459;-46
2020/12/07 12:22:26;;;;;;;21.37;16.57;;;9.70;99.90;;;;;;5055481;28;20964;-46
2020/12/07 12:24:53;;;;;;;23.97;17.00;;;9.50;99.90;;;;;;5055911;28;20434;-46
2020/12/07 12:27:20;;;;;;;24.47;16.03;;;9.60;99.90;;;;;;5055908;28;20477;-46
2020/12/07 12:29:47;;;;;;;24.50;15.90;;;9.60;99.90;;;;;;5055676;28;20410;-47
2020/12/07 12:32:13;;;;;;;19.70;17.27;;;9.70;99.90;;;;;;5055174;28;20955;-49
2020/12/07 12:34:40;;;;;;;20.80;17.40;;;9.60;99.90;;;;;;5054609;28;20431;-46
2020/12/07 12:37:06;;;;;;;19.70;16.20;;;9.80;99.90;;;;;;5055924;28;20410;-46
2020/12/07 12:39:34;;;;;;;20.57;15.70;;;9.60;99.90;;;;;;5055443;28;20785;-47
2020/12/07 12:42:01;;;;;;;21.07;16.57;;;9.70;99.90;;;;;;5060724;28;20776;-47
2020/12/07 12:44:28;;;;;;;23.00;16.93;;;10.00;99.90;;;;;;5075466;28;20427;-47
2020/12/07 12:46:54;;;;;;;20.00;16.10;;;9.70;99.90;;;;;;5077043;28;20470;-48
2020/12/07 12:49:21;;;;;;;19.90;16.07;;;9.80;99.90;;;;;;5076304;28;20440;-47
2020/12/07 12:51:48;;;;;;;21.20;17.30;;;9.70;99.90;;;;;;5057887;28;20460;-46
2020/12/07 12:54:15;;;;;;;25.80;18.03;;;9.60;99.90;;;;;;5072601;28;20525;-46
2020/12/07 12:56:42;;;;;;;20.87;17.77;;;9.70;99.90;;;;;;5055008;28;20408;-47
2020/12/07 12:59:09;;;;;;;22.07;18.47;;;9.70;99.90;;;;;;5055321;28;20555;-46
2020/12/07 13:01:36;;;;;;;21.63;17.20;;;9.60;99.90;;;;;;5054635;28;20425;-45
2020/12/07 13:04:04;;;;;;;26.77;20.37;;;10.20;99.90;;;;;;5055182;28;20452;-47